createdAt,value
2023-02-05T00:03:51.869Z,1.90
2023-02-05T00:08:54.794Z,3.00
2023-02-05T00:13:57.777Z,2.10
2023-02-05T00:19:02.183Z,1.70
2023-02-05T00:24:05.417Z,2.93
2023-02-05T00:29:08.375Z,2.37
2023-02-05T00:34:12.609Z,2.27
2023-02-05T00:39:16.063Z,2.87
2023-02-05T00:44:19.011Z,2.60
2023-02-05T00:49:23.352Z,2.10
2023-02-05T00:54:26.389Z,2.37
2023-02-05T00:59:29.286Z,2.23
2023-02-05T01:04:33.568Z,2.60
2023-02-05T01:09:36.477Z,2.00
2023-02-05T01:14:39.490Z,2.03
2023-02-05T01:19:43.928Z,1.97
2023-02-05T01:24:46.959Z,2.03
2023-02-05T01:29:49.875Z,2.70
2023-02-05T01:34:54.170Z,2.40
2023-02-05T01:39:57.133Z,3.03
2023-02-05T01:45:37.162Z,2.43
2023-02-05T01:50:45.568Z,2.80
2023-02-05T01:55:54.138Z,2.20
2023-02-05T02:00:58.782Z,2.13
2023-02-05T02:06:04.784Z,2.43
2023-02-05T02:11:11.132Z,2.60
2023-02-05T02:16:14.941Z,2.70
2023-02-05T02:21:43.756Z,2.77
2023-02-05T02:27:01.116Z,2.23
2023-02-05T02:32:15.581Z,2.30
2023-02-05T02:37:26.177Z,2.87
2023-02-05T02:42:34.596Z,2.20
2023-02-05T02:47:45.537Z,2.90
2023-02-05T02:52:49.602Z,2.70
2023-02-05T02:57:54.813Z,2.80
2023-02-05T03:03:06.268Z,3.40
2023-02-05T03:08:14.602Z,3.10
2023-02-05T03:13:19.580Z,3.97
2023-02-05T03:18:31.341Z,3.77
2023-02-05T03:23:34.331Z,2.87
2023-02-05T03:28:37.357Z,2.57
2023-02-05T03:33:54.296Z,2.73
2023-02-05T03:39:10.722Z,2.30
2023-02-05T03:44:25.255Z,2.87
2023-02-05T03:49:38.446Z,2.90
2023-02-05T03:54:47.640Z,3.00
2023-02-05T03:59:58.082Z,3.13
2023-02-05T04:05:03.979Z,2.67
2023-02-05T04:10:07.833Z,2.70
2023-02-05T04:15:12.325Z,2.77
2023-02-05T04:20:22.097Z,2.20
2023-02-05T04:25:25.139Z,3.17
2023-02-05T04:30:30.294Z,4.47
2023-02-05T04:35:35.043Z,3.03
2023-02-05T04:40:41.008Z,3.30
2023-02-05T04:45:43.947Z,3.20
2023-02-05T04:50:48.740Z,3.83
2023-02-05T04:55:51.724Z,3.60
2023-02-05T05:00:54.670Z,3.40
2023-02-05T05:06:04.606Z,3.33
2023-02-05T05:11:08.805Z,2.73
2023-02-05T05:16:12.597Z,3.40
2023-02-05T05:21:16.949Z,3.20
2023-02-05T05:26:19.828Z,4.47
2023-02-05T05:31:22.824Z,4.03
2023-02-05T05:36:27.145Z,3.63
2023-02-05T05:41:47.528Z,3.30
2023-02-05T05:46:50.529Z,3.70
2023-02-05T05:51:54.732Z,3.77
2023-02-05T05:56:57.645Z,6.43
2023-02-05T06:02:02.477Z,4.80
2023-02-05T06:07:06.840Z,3.83
2023-02-05T06:12:11.673Z,2.83
2023-02-05T06:17:14.749Z,8.70
2023-02-05T06:22:19.023Z,9.07
2023-02-05T06:27:21.922Z,8.47
2023-02-05T06:32:26.804Z,6.60
2023-02-05T06:37:46.323Z,5.40
2023-02-05T06:42:50.231Z,5.20
2023-02-05T06:47:55.925Z,5.13
2023-02-05T06:53:00.285Z,5.53
2023-02-05T06:58:03.138Z,4.60
2023-02-05T07:03:06.108Z,2.70
2023-02-05T07:08:10.392Z,1.57
2023-02-05T07:13:13.307Z,1.37
2023-02-05T07:18:16.377Z,1.40
2023-02-05T07:23:20.619Z,1.80
2023-02-05T07:28:23.544Z,5.93
2023-02-05T07:33:26.441Z,5.87
2023-02-05T07:38:30.723Z,5.27
2023-02-05T07:43:33.663Z,5.50
2023-02-05T07:48:37.140Z,7.57
2023-02-05T07:53:41.392Z,7.60
2023-02-05T07:58:44.728Z,2.67
2023-02-05T08:03:47.622Z,9.47
2023-02-05T08:08:51.886Z,5.40
2023-02-05T08:13:54.811Z,7.70
2023-02-05T08:18:57.664Z,7.67
2023-02-05T08:24:02.188Z,8.10
2023-02-05T08:29:05.216Z,8.60
2023-02-05T08:34:08.177Z,9.50
2023-02-05T08:39:12.470Z,7.27
2023-02-05T08:44:15.464Z,7.00
2023-02-05T08:49:18.573Z,5.70
2023-02-05T08:54:22.974Z,15.97
2023-02-05T08:59:25.939Z,7.30
2023-02-05T09:04:29.306Z,8.27
2023-02-05T09:09:34.972Z,7.70
2023-02-05T09:14:38.122Z,7.43
2023-02-05T09:19:42.548Z,9.43
2023-02-05T09:24:46.904Z,7.83
2023-02-05T09:29:49.782Z,7.30
2023-02-05T09:34:52.694Z,7.67
2023-02-05T09:45:37.313Z,6.10
2023-02-05T09:50:42.541Z,9.43
2023-02-05T09:55:48.270Z,6.70
2023-02-05T10:00:54.810Z,10.90
2023-02-05T10:06:14.085Z,6.07
2023-02-05T10:11:27.905Z,6.53
2023-02-05T10:17:09.149Z,6.00
2023-02-05T10:22:19.515Z,3.20
2023-02-05T10:27:25.804Z,3.70
2023-02-05T10:32:40.055Z,5.00
2023-02-05T10:37:47.926Z,4.13
2023-02-05T10:42:56.028Z,4.07
2023-02-05T10:48:23.349Z,3.67
2023-02-05T10:53:27.908Z,4.10
2023-02-05T10:58:47.733Z,3.40
2023-02-05T11:03:55.934Z,3.00
2023-02-05T11:08:59.084Z,2.40
2023-02-05T11:14:07.166Z,3.10
2023-02-05T11:19:21.423Z,2.47
2023-02-05T11:24:29.004Z,2.20
2023-02-05T11:29:33.264Z,2.33
2023-02-05T11:34:36.215Z,2.63
2023-02-05T11:39:41.399Z,2.10
2023-02-05T11:44:51.149Z,2.67
2023-02-05T11:49:55.135Z,2.47
2023-02-05T11:54:58.148Z,2.60
2023-02-05T12:00:19.339Z,2.37
2023-02-05T12:05:27.223Z,2.20
2023-02-05T12:10:38.820Z,2.40
2023-02-05T12:15:48.869Z,2.37
2023-02-05T12:21:05.976Z,2.40
2023-02-05T12:26:27.422Z,2.83
2023-02-05T12:31:47.069Z,2.03
2023-02-05T12:37:05.299Z,2.43
2023-02-05T12:42:22.749Z,1.97
2023-02-05T12:47:45.347Z,2.20
2023-02-05T12:53:13.635Z,2.90
2023-02-05T12:58:18.542Z,2.10
2023-02-05T13:03:29.647Z,1.70
2023-02-05T13:08:42.772Z,1.30
2023-02-05T13:13:53.109Z,1.60
2023-02-05T13:19:03.209Z,1.83
2023-02-05T13:24:40.786Z,1.73
2023-02-05T13:29:51.385Z,1.67
2023-02-05T13:34:58.633Z,1.60
2023-02-05T13:40:40.157Z,2.30
2023-02-05T13:46:20.806Z,1.70
2023-02-05T13:51:40.118Z,1.40
2023-02-05T13:56:49.533Z,1.57
2023-02-05T14:01:57.901Z,1.77
2023-02-05T14:07:05.345Z,2.20
2023-02-05T14:12:11.305Z,1.77
2023-02-05T14:17:47.199Z,2.27
2023-02-05T14:22:52.620Z,2.03
2023-02-05T14:27:56.875Z,2.00
2023-02-05T14:33:01.112Z,1.80
2023-02-05T14:38:17.341Z,1.87
2023-02-05T14:43:28.435Z,2.00
2023-02-05T14:48:34.314Z,2.20
2023-02-05T14:53:39.879Z,2.23
2023-02-05T14:58:45.209Z,2.70
2023-02-05T15:03:48.322Z,1.73
2023-02-05T15:09:00.618Z,2.40
2023-02-05T15:14:44.381Z,2.40
2023-02-05T15:19:52.705Z,3.00
2023-02-05T15:24:58.158Z,2.73
2023-02-05T15:30:09.163Z,2.77
2023-02-05T15:35:17.444Z,2.80
2023-02-05T15:40:25.964Z,2.80
2023-02-05T15:45:31.914Z,3.07
2023-02-05T15:50:37.122Z,4.37
2023-02-05T15:55:41.426Z,4.60
2023-02-05T16:00:47.823Z,3.57
2023-02-05T16:05:53.142Z,2.97
2023-02-05T16:11:01.915Z,3.30
2023-02-05T16:16:09.576Z,2.80
2023-02-05T16:21:18.695Z,3.90
2023-02-05T16:26:27.825Z,3.17
2023-02-05T16:31:33.574Z,3.30
2023-02-05T16:36:40.052Z,2.90
2023-02-05T16:41:45.183Z,4.07
2023-02-05T16:47:06.682Z,3.77
2023-02-05T16:52:31.864Z,3.93
2023-02-05T16:57:39.846Z,4.30
2023-02-05T17:02:43.209Z,3.70
2023-02-05T17:07:55.461Z,3.00
2023-02-05T17:13:04.862Z,6.40
2023-02-05T17:18:26.565Z,4.03
2023-02-05T17:23:29.449Z,6.40
2023-02-05T17:28:38.096Z,5.60
2023-02-05T17:33:41.057Z,5.40
2023-02-05T17:38:44.059Z,4.90
2023-02-05T17:43:48.412Z,3.87
2023-02-05T17:48:51.346Z,5.00
2023-02-05T17:53:54.629Z,7.23
2023-02-05T17:58:59.896Z,7.33
2023-02-05T18:04:02.915Z,35.40
2023-02-05T18:09:06.267Z,14.17
2023-02-05T18:14:12.590Z,6.20
2023-02-05T18:19:15.801Z,17.50
2023-02-05T18:24:18.725Z,17.50
2023-02-05T18:29:23.198Z,10.17
2023-02-05T18:34:27.706Z,10.47
2023-02-05T18:39:30.629Z,16.53
2023-02-05T18:44:35.177Z,6.20
2023-02-05T18:49:38.153Z,6.73
2023-02-05T18:54:41.355Z,9.67
2023-02-05T18:59:48.461Z,10.30
2023-02-05T19:04:55.733Z,12.50
2023-02-05T19:09:59.356Z,13.87
2023-02-05T19:15:03.684Z,13.77
2023-02-05T19:20:07.353Z,12.73
2023-02-05T19:25:10.248Z,14.50
2023-02-05T19:30:15.093Z,15.93
2023-02-05T19:35:18.276Z,12.83
2023-02-05T19:40:21.605Z,11.43
2023-02-05T19:45:25.848Z,8.03
2023-02-05T19:50:28.757Z,7.93
2023-02-05T19:55:33.049Z,8.00
2023-02-05T20:00:37.530Z,9.63
2023-02-05T20:05:40.485Z,9.90
2023-02-05T20:10:43.393Z,11.77
2023-02-05T20:15:47.794Z,10.23
2023-02-05T20:20:50.726Z,12.17
2023-02-05T20:25:57.537Z,12.97
2023-02-05T20:31:19.737Z,9.53
2023-02-05T20:36:22.807Z,11.40
2023-02-05T20:41:26.178Z,13.00
2023-02-05T20:46:31.130Z,11.80
2023-02-05T20:51:34.077Z,7.93
2023-02-05T20:56:37.308Z,7.20
2023-02-05T21:01:41.633Z,5.70
2023-02-05T21:06:44.588Z,7.23
2023-02-05T21:11:47.727Z,6.13
2023-02-05T21:16:52.098Z,5.80
2023-02-05T21:21:54.995Z,6.90
2023-02-05T21:26:57.987Z,9.00
2023-02-05T21:32:02.393Z,10.17
2023-02-05T21:37:05.306Z,12.00
2023-02-05T21:42:08.224Z,11.97
2023-02-05T21:47:12.506Z,13.40
2023-02-05T21:52:15.572Z,12.77
2023-02-05T21:57:18.607Z,12.37
2023-02-05T22:02:22.993Z,11.87
2023-02-05T22:07:26.073Z,8.33
2023-02-05T22:12:28.989Z,6.57
2023-02-05T22:17:33.272Z,6.80
2023-02-05T22:22:36.457Z,9.20
2023-02-05T22:27:39.384Z,8.13
2023-02-05T22:32:43.694Z,9.70
2023-02-05T22:37:46.576Z,10.87
2023-02-05T22:42:49.487Z,12.10
2023-02-05T22:47:53.759Z,10.20
2023-02-05T22:52:56.699Z,10.70
2023-02-05T22:57:59.618Z,9.17
2023-02-05T23:03:03.959Z,10.30
2023-02-05T23:08:06.976Z,9.50
2023-02-05T23:13:09.990Z,9.67
2023-02-05T23:18:14.305Z,8.70
2023-02-05T23:23:17.202Z,8.50
2023-02-05T23:28:21.858Z,8.63
2023-02-05T23:33:26.173Z,9.53
2023-02-05T23:38:29.133Z,7.70
2023-02-05T23:43:33.219Z,10.47
2023-02-05T23:48:37.504Z,9.73
2023-02-05T23:53:40.454Z,11.53
2023-02-05T23:58:43.339Z,11.40
